sensor_id;sensor_type;location;lat;lon;timestamp;temperature;humidity
73509;SHT30;61750;55.036;73.312;2023-01-10T00:01:51;-29.79;72.78
73509;SHT30;61750;55.036;73.312;2023-01-10T00:04:17;-29.79;72.75
73509;SHT30;61750;55.036;73.312;2023-01-10T00:06:43;-29.78;72.60
73509;SHT30;61750;55.036;73.312;2023-01-10T00:09:19;-29.74;72.65
73509;SHT30;61750;55.036;73.312;2023-01-10T00:11:45;-29.69;72.68
73509;SHT30;61750;55.036;73.312;2023-01-10T00:14:29;-29.69;72.51
73509;SHT30;61750;55.036;73.312;2023-01-10T00:16:58;-29.62;72.52
73509;SHT30;61750;55.036;73.312;2023-01-10T00:19:28;-29.68;72.36
73509;SHT30;61750;55.036;73.312;2023-01-10T00:21:54;-29.69;72.28
73509;SHT30;61750;55.036;73.312;2023-01-10T00:24:31;-29.62;72.38
73509;SHT30;61750;55.036;73.312;2023-01-10T00:26:57;-29.67;72.38
73509;SHT30;61750;55.036;73.312;2023-01-10T00:29:25;-29.64;72.27
73509;SHT30;61750;55.036;73.312;2023-01-10T00:32:02;-29.67;72.21
73509;SHT30;61750;55.036;73.312;2023-01-10T00:34:31;-29.67;72.35
73509;SHT30;61750;55.036;73.312;2023-01-10T00:36:59;-29.62;72.46
73509;SHT30;61750;55.036;73.312;2023-01-10T00:39:31;-29.58;72.46
73509;SHT30;61750;55.036;73.312;2023-01-10T00:41:57;-29.64;72.37
73509;SHT30;61750;55.036;73.312;2023-01-10T00:44:51;-29.64;72.27
73509;SHT30;61750;55.036;73.312;2023-01-10T00:47:17;-29.61;72.28
73509;SHT30;61750;55.036;73.312;2023-01-10T00:49:43;-29.59;72.27
73509;SHT30;61750;55.036;73.312;2023-01-10T00:52:09;-29.59;72.43
73509;SHT30;61750;55.036;73.312;2023-01-10T00:54:35;-29.59;72.45
73509;SHT30;61750;55.036;73.312;2023-01-10T00:57:01;-29.61;72.57
73509;SHT30;61750;55.036;73.312;2023-01-10T00:59:33;-29.62;72.48
73509;SHT30;61750;55.036;73.312;2023-01-10T01:01:58;-29.62;72.53
73509;SHT30;61750;55.036;73.312;2023-01-10T01:04:25;-29.65;72.66
73509;SHT30;61750;55.036;73.312;2023-01-10T01:06:55;-29.65;72.66
73509;SHT30;61750;55.036;73.312;2023-01-10T01:09:21;-29.67;72.74
73509;SHT30;61750;55.036;73.312;2023-01-10T01:11:57;-29.69;72.82
73509;SHT30;61750;55.036;73.312;2023-01-10T01:14:23;-29.69;72.98
73509;SHT30;61750;55.036;73.312;2023-01-10T01:16:49;-29.69;73.06
73509;SHT30;61750;55.036;73.312;2023-01-10T01:19:27;-29.71;73.13
73509;SHT30;61750;55.036;73.312;2023-01-10T01:21:53;-29.68;73.16
73509;SHT30;61750;55.036;73.312;2023-01-10T01:24:19;-29.68;73.22
73509;SHT30;61750;55.036;73.312;2023-01-10T01:26:45;-29.67;73.22
73509;SHT30;61750;55.036;73.312;2023-01-10T01:29:11;-29.62;73.21
73509;SHT30;61750;55.036;73.312;2023-01-10T01:31:47;-29.61;73.14
73509;SHT30;61750;55.036;73.312;2023-01-10T01:34:18;-29.59;73.14
73509;SHT30;61750;55.036;73.312;2023-01-10T01:36:45;-29.54;73.04
73509;SHT30;61750;55.036;73.312;2023-01-10T01:39:15;-29.55;73.04
73509;SHT30;61750;55.036;73.312;2023-01-10T01:41:47;-29.57;72.80
73509;SHT30;61750;55.036;73.312;2023-01-10T01:44:22;-29.57;72.88
73509;SHT30;61750;55.036;73.312;2023-01-10T01:46:59;-29.62;72.78
73509;SHT30;61750;55.036;73.312;2023-01-10T01:49:37;-29.68;72.72
73509;SHT30;61750;55.036;73.312;2023-01-10T01:52:07;-29.71;72.95
73509;SHT30;61750;55.036;73.312;2023-01-10T01:54:37;-29.69;72.98
73509;SHT30;61750;55.036;73.312;2023-01-10T01:57:04;-29.77;72.85
73509;SHT30;61750;55.036;73.312;2023-01-10T01:59:42;-29.77;72.98
73509;SHT30;61750;55.036;73.312;2023-01-10T02:02:19;-29.75;73.16
73509;SHT30;61750;55.036;73.312;2023-01-10T02:04:55;-29.84;73.18
73509;SHT30;61750;55.036;73.312;2023-01-10T02:07:22;-29.85;73.22
73509;SHT30;61750;55.036;73.312;2023-01-10T02:09:53;-29.86;73.39
73509;SHT30;61750;55.036;73.312;2023-01-10T02:12:20;-29.85;73.47
73509;SHT30;61750;55.036;73.312;2023-01-10T02:14:47;-29.88;73.50
73509;SHT30;61750;55.036;73.312;2023-01-10T02:17:15;-29.91;73.42
73509;SHT30;61750;55.036;73.312;2023-01-10T02:19:53;-29.92;73.42
73509;SHT30;61750;55.036;73.312;2023-01-10T02:27:34;-30.02;73.43
73509;SHT30;61750;55.036;73.312;2023-01-10T02:41:22;-30.00;73.77
73509;SHT30;61750;55.036;73.312;2023-01-10T02:44:38;-29.98;73.90
73509;SHT30;61750;55.036;73.312;2023-01-10T02:46:38;-29.99;73.91
73509;SHT30;61750;55.036;73.312;2023-01-10T02:49:05;-30.02;73.87
73509;SHT30;61750;55.036;73.312;2023-01-10T02:51:31;-30.02;73.80
73509;SHT30;61750;55.036;73.312;2023-01-10T02:54:07;-30.00;73.84
73509;SHT30;61750;55.036;73.312;2023-01-10T03:01:58;-30.05;74.19
73509;SHT30;61750;55.036;73.312;2023-01-10T03:04:30;-30.06;74.24
73509;SHT30;61750;55.036;73.312;2023-01-10T03:09:40;-30.05;74.21
73509;SHT30;61750;55.036;73.312;2023-01-10T03:12:33;-30.03;74.19
73509;SHT30;61750;55.036;73.312;2023-01-10T03:15:07;-30.09;74.12
73509;SHT30;61750;55.036;73.312;2023-01-10T03:17:35;-30.13;73.87
73509;SHT30;61750;55.036;73.312;2023-01-10T03:20:03;-30.13;73.84
73509;SHT30;61750;55.036;73.312;2023-01-10T03:22:30;-30.14;73.83
73509;SHT30;61750;55.036;73.312;2023-01-10T03:24:57;-30.16;73.88
73509;SHT30;61750;55.036;73.312;2023-01-10T03:30:05;-30.09;73.95
73509;SHT30;61750;55.036;73.312;2023-01-10T03:32:38;-30.12;73.83
73509;SHT30;61750;55.036;73.312;2023-01-10T03:35:10;-30.13;73.72
73509;SHT30;61750;55.036;73.312;2023-01-10T03:40:55;-30.14;73.70
73509;SHT30;61750;55.036;73.312;2023-01-10T03:43:40;-30.16;73.63
73509;SHT30;61750;55.036;73.312;2023-01-10T03:46:28;-30.12;73.70
73509;SHT30;61750;55.036;73.312;2023-01-10T03:48:57;-30.09;73.66
73509;SHT30;61750;55.036;73.312;2023-01-10T03:51:24;-30.05;73.49
73509;SHT30;61750;55.036;73.312;2023-01-10T03:53:50;-30.05;73.40
73509;SHT30;61750;55.036;73.312;2023-01-10T03:56:16;-30.05;73.31
73509;SHT30;61750;55.036;73.312;2023-01-10T03:58:42;-30.06;73.06
73509;SHT30;61750;55.036;73.312;2023-01-10T04:01:13;-30.03;73.04
73509;SHT30;61750;55.036;73.312;2023-01-10T04:03:39;-30.06;72.91
73509;SHT30;61750;55.036;73.312;2023-01-10T04:06:05;-30.00;72.88
73509;SHT30;61750;55.036;73.312;2023-01-10T04:08:31;-29.96;72.81
73509;SHT30;61750;55.036;73.312;2023-01-10T04:10:57;-29.95;72.79
73509;SHT30;61750;55.036;73.312;2023-01-10T04:13:23;-29.85;72.73
73509;SHT30;61750;55.036;73.312;2023-01-10T04:15:54;-29.82;72.77
73509;SHT30;61750;55.036;73.312;2023-01-10T04:18:20;-29.74;72.66
73509;SHT30;61750;55.036;73.312;2023-01-10T04:20:51;-29.65;72.49
73509;SHT30;61750;55.036;73.312;2023-01-10T04:23:27;-29.61;72.11
73509;SHT30;61750;55.036;73.312;2023-01-10T04:25:53;-29.47;72.13
73509;SHT30;61750;55.036;73.312;2023-01-10T04:28:19;-29.40;71.97
73509;SHT30;61750;55.036;73.312;2023-01-10T04:30:51;-29.51;71.35
73509;SHT30;61750;55.036;73.312;2023-01-10T04:33:22;-29.50;70.92
73509;SHT30;61750;55.036;73.312;2023-01-10T04:35:51;-29.54;70.92
73509;SHT30;61750;55.036;73.312;2023-01-10T04:38:29;-29.48;71.01
73509;SHT30;61750;55.036;73.312;2023-01-10T04:40:55;-29.38;71.04
73509;SHT30;61750;55.036;73.312;2023-01-10T04:43:26;-29.38;70.97
73509;SHT30;61750;55.036;73.312;2023-01-10T04:45:52;-29.35;70.70
73509;SHT30;61750;55.036;73.312;2023-01-10T04:48:18;-29.24;70.64
73509;SHT30;61750;55.036;73.312;2023-01-10T04:50:52;-29.16;70.50
73509;SHT30;61750;55.036;73.312;2023-01-10T04:53:23;-29.09;70.38
73509;SHT30;61750;55.036;73.312;2023-01-10T04:56:02;-29.12;70.24
73509;SHT30;61750;55.036;73.312;2023-01-10T04:58:39;-29.04;70.09
73509;SHT30;61750;55.036;73.312;2023-01-10T05:01:06;-28.98;70.06
73509;SHT30;61750;55.036;73.312;2023-01-10T05:03:32;-28.93;69.89
73509;SHT30;61750;55.036;73.312;2023-01-10T05:05:58;-28.89;69.64
73509;SHT30;61750;55.036;73.312;2023-01-10T05:08:35;-28.95;69.52
73509;SHT30;61750;55.036;73.312;2023-01-10T05:11:06;-28.88;69.44
73509;SHT30;61750;55.036;73.312;2023-01-10T05:13:41;-28.79;69.40
73509;SHT30;61750;55.036;73.312;2023-01-10T05:16:07;-28.83;69.01
73509;SHT30;61750;55.036;73.312;2023-01-10T05:18:39;-28.78;68.87
73509;SHT30;61750;55.036;73.312;2023-01-10T05:21:11;-28.78;68.82
73509;SHT30;61750;55.036;73.312;2023-01-10T05:23:37;-28.69;68.85
73509;SHT30;61750;55.036;73.312;2023-01-10T05:26:08;-28.55;69.00
73509;SHT30;61750;55.036;73.312;2023-01-10T05:28:40;-28.43;68.84
73509;SHT30;61750;55.036;73.312;2023-01-10T05:31:14;-28.40;68.44
73509;SHT30;61750;55.036;73.312;2023-01-10T05:33:45;-28.24;68.14
73509;SHT30;61750;55.036;73.312;2023-01-10T05:36:12;-28.30;67.78
73509;SHT30;61750;55.036;73.312;2023-01-10T05:38:41;-28.27;67.72
73509;SHT30;61750;55.036;73.312;2023-01-10T05:41:17;-28.18;67.80
73509;SHT30;61750;55.036;73.312;2023-01-10T05:43:48;-28.18;67.87
73509;SHT30;61750;55.036;73.312;2023-01-10T05:46:14;-28.07;67.90
73509;SHT30;61750;55.036;73.312;2023-01-10T05:48:40;-27.96;67.78
73509;SHT30;61750;55.036;73.312;2023-01-10T05:51:06;-27.85;67.59
73509;SHT30;61750;55.036;73.312;2023-01-10T05:53:33;-27.80;67.58
73509;SHT30;61750;55.036;73.312;2023-01-10T05:56:11;-27.56;67.93
73509;SHT30;61750;55.036;73.312;2023-01-10T05:58:37;-27.39;67.52
73509;SHT30;61750;55.036;73.312;2023-01-10T06:01:03;-27.35;66.96
73509;SHT30;61750;55.036;73.312;2023-01-10T06:03:29;-27.20;66.46
73509;SHT30;61750;55.036;73.312;2023-01-10T06:05:55;-27.34;65.55
73509;SHT30;61750;55.036;73.312;2023-01-10T06:08:26;-27.27;65.42
73509;SHT30;61750;55.036;73.312;2023-01-10T06:11:05;-27.31;65.16
73509;SHT30;61750;55.036;73.312;2023-01-10T06:14:14;-27.38;65.07
73509;SHT30;61750;55.036;73.312;2023-01-10T06:16:44;-27.38;65.19
73509;SHT30;61750;55.036;73.312;2023-01-10T06:19:17;-27.39;65.00
73509;SHT30;61750;55.036;73.312;2023-01-10T06:21:54;-27.25;65.42
73509;SHT30;61750;55.036;73.312;2023-01-10T06:24:31;-27.07;65.76
73509;SHT30;61750;55.036;73.312;2023-01-10T06:26:58;-26.91;65.67
73509;SHT30;61750;55.036;73.312;2023-01-10T06:29:24;-26.81;65.24
73509;SHT30;61750;55.036;73.312;2023-01-10T06:32:00;-26.89;64.77
73509;SHT30;61750;55.036;73.312;2023-01-10T06:34:26;-26.87;64.69
73509;SHT30;61750;55.036;73.312;2023-01-10T06:36:57;-26.94;64.46
73509;SHT30;61750;55.036;73.312;2023-01-10T06:39:29;-26.80;64.84
73509;SHT30;61750;55.036;73.312;2023-01-10T06:41:59;-26.72;64.79
73509;SHT30;61750;55.036;73.312;2023-01-10T06:44:25;-26.62;64.70
73509;SHT30;61750;55.036;73.312;2023-01-10T06:46:51;-26.51;64.74
73509;SHT30;61750;55.036;73.312;2023-01-10T06:49:17;-26.53;64.02
73509;SHT30;61750;55.036;73.312;2023-01-10T06:51:43;-26.70;63.60
73509;SHT30;61750;55.036;73.312;2023-01-10T06:54:17;-26.76;63.62
73509;SHT30;61750;55.036;73.312;2023-01-10T06:56:43;-26.66;63.67
73509;SHT30;61750;55.036;73.312;2023-01-10T06:59:16;-26.67;63.66
73509;SHT30;61750;55.036;73.312;2023-01-10T07:01:42;-26.65;63.64
73509;SHT30;61750;55.036;73.312;2023-01-10T07:04:09;-26.55;63.73
73509;SHT30;61750;55.036;73.312;2023-01-10T07:06:44;-26.51;63.45
73509;SHT30;61750;55.036;73.312;2023-01-10T07:09:10;-26.60;63.59
73509;SHT30;61750;55.036;73.312;2023-01-10T07:11:37;-26.41;64.03
73509;SHT30;61750;55.036;73.312;2023-01-10T07:14:13;-26.36;63.57
73509;SHT30;61750;55.036;73.312;2023-01-10T07:16:44;-26.22;63.43
73509;SHT30;61750;55.036;73.312;2023-01-10T07:19:44;-26.27;63.40
73509;SHT30;61750;55.036;73.312;2023-01-10T07:22:10;-26.20;63.16
73509;SHT30;61750;55.036;73.312;2023-01-10T07:24:37;-26.09;63.07
73509;SHT30;61750;55.036;73.312;2023-01-10T07:27:31;-25.87;62.52
73509;SHT30;61750;55.036;73.312;2023-01-10T07:29:58;-25.58;62.37
73509;SHT30;61750;55.036;73.312;2023-01-10T07:32:28;-25.62;61.30
73509;SHT30;61750;55.036;73.312;2023-01-10T07:34:54;-25.42;61.01
73509;SHT30;61750;55.036;73.312;2023-01-10T07:37:28;-25.45;60.40
73509;SHT30;61750;55.036;73.312;2023-01-10T07:39:54;-25.51;60.02
73509;SHT30;61750;55.036;73.312;2023-01-10T07:42:28;-25.43;60.06
73509;SHT30;61750;55.036;73.312;2023-01-10T07:45:00;-25.51;59.91
73509;SHT30;61750;55.036;73.312;2023-01-10T07:47:30;-25.42;60.20
73509;SHT30;61750;55.036;73.312;2023-01-10T07:49:56;-25.58;60.27
73509;SHT30;61750;55.036;73.312;2023-01-10T07:52:28;-25.52;60.43
73509;SHT30;61750;55.036;73.312;2023-01-10T07:54:55;-25.42;60.42
73509;SHT30;61750;55.036;73.312;2023-01-10T07:57:21;-25.46;60.55
73509;SHT30;61750;55.036;73.312;2023-01-10T07:59:47;-25.27;61.21
73509;SHT30;61750;55.036;73.312;2023-01-10T08:02:28;-25.20;60.81
73509;SHT30;61750;55.036;73.312;2023-01-10T08:04:54;-25.48;60.17
73509;SHT30;61750;55.036;73.312;2023-01-10T08:07:29;-25.25;60.94
73509;SHT30;61750;55.036;73.312;2023-01-10T08:09:55;-25.32;60.57
73509;SHT30;61750;55.036;73.312;2023-01-10T08:12:32;-25.07;60.87
73509;SHT30;61750;55.036;73.312;2023-01-10T08:15:08;-24.87;60.65
73509;SHT30;61750;55.036;73.312;2023-01-10T08:17:35;-24.81;60.40
73509;SHT30;61750;55.036;73.312;2023-01-10T08:20:11;-24.96;59.49
73509;SHT30;61750;55.036;73.312;2023-01-10T08:22:47;-25.07;59.32
73509;SHT30;61750;55.036;73.312;2023-01-10T08:25:23;-25.08;59.95
73509;SHT30;61750;55.036;73.312;2023-01-10T08:27:50;-25.31;59.79
73509;SHT30;61750;55.036;73.312;2023-01-10T08:30:21;-25.30;60.35
73509;SHT30;61750;55.036;73.312;2023-01-10T08:33:00;-25.39;60.18
73509;SHT30;61750;55.036;73.312;2023-01-10T08:35:27;-25.39;60.50
73509;SHT30;61750;55.036;73.312;2023-01-10T08:37:53;-25.38;60.42
73509;SHT30;61750;55.036;73.312;2023-01-10T08:40:32;-25.24;60.55
73509;SHT30;61750;55.036;73.312;2023-01-10T08:42:59;-25.15;60.35
73509;SHT30;61750;55.036;73.312;2023-01-10T08:45:36;-25.07;60.09
73509;SHT30;61750;55.036;73.312;2023-01-10T08:48:15;-24.80;59.66
73509;SHT30;61750;55.036;73.312;2023-01-10T08:50:51;-24.70;59.11
73509;SHT30;61750;55.036;73.312;2023-01-10T08:53:17;-24.52;58.91
73509;SHT30;61750;55.036;73.312;2023-01-10T08:55:47;-24.38;58.59
73509;SHT30;61750;55.036;73.312;2023-01-10T08:58:14;-24.15;57.94
73509;SHT30;61750;55.036;73.312;2023-01-10T09:00:41;-24.05;57.35
73509;SHT30;61750;55.036;73.312;2023-01-10T09:03:09;-23.94;56.97
73509;SHT30;61750;55.036;73.312;2023-01-10T09:05:35;-23.76;56.54
73509;SHT30;61750;55.036;73.312;2023-01-10T09:08:02;-24.02;55.69
73509;SHT30;61750;55.036;73.312;2023-01-10T09:10:39;-23.78;56.22
73509;SHT30;61750;55.036;73.312;2023-01-10T09:13:06;-23.77;56.22
73509;SHT30;61750;55.036;73.312;2023-01-10T09:15:33;-23.69;55.64
73509;SHT30;61750;55.036;73.312;2023-01-10T09:18:05;-23.57;55.06
73509;SHT30;61750;55.036;73.312;2023-01-10T09:20:44;-23.56;54.68
73509;SHT30;61750;55.036;73.312;2023-01-10T09:23:12;-23.38;54.75
73509;SHT30;61750;55.036;73.312;2023-01-10T09:25:44;-23.28;54.49
73509;SHT30;61750;55.036;73.312;2023-01-10T09:28:10;-23.22;54.19
73509;SHT30;61750;55.036;73.312;2023-01-10T09:30:36;-23.32;54.07
73509;SHT30;61750;55.036;73.312;2023-01-10T09:33:07;-23.45;54.01
73509;SHT30;61750;55.036;73.312;2023-01-10T09:35:34;-23.53;54.26
73509;SHT30;61750;55.036;73.312;2023-01-10T09:38:01;-23.57;54.90
73509;SHT30;61750;55.036;73.312;2023-01-10T09:43:02;-23.36;54.70
73509;SHT30;61750;55.036;73.312;2023-01-10T09:45:40;-23.39;54.51
73509;SHT30;61750;55.036;73.312;2023-01-10T09:48:09;-23.69;54.40
73509;SHT30;61750;55.036;73.312;2023-01-10T09:53:23;-24.88;56.42
73509;SHT30;61750;55.036;73.312;2023-01-10T09:56:02;-25.28;58.21
73509;SHT30;61750;55.036;73.312;2023-01-10T09:58:30;-25.49;59.50
73509;SHT30;61750;55.036;73.312;2023-01-10T10:00:58;-25.72;60.79
73509;SHT30;61750;55.036;73.312;2023-01-10T10:06:00;-25.83;62.45
73509;SHT30;61750;55.036;73.312;2023-01-10T10:08:29;-26.00;62.59
73509;SHT30;61750;55.036;73.312;2023-01-10T10:19:13;-26.18;63.51
73509;SHT30;61750;55.036;73.312;2023-01-10T10:24:24;-26.49;64.77
73509;SHT30;61750;55.036;73.312;2023-01-10T10:35:25;-26.99;67.01
73509;SHT30;61750;55.036;73.312;2023-01-10T10:37:52;-27.18;67.30
73509;SHT30;61750;55.036;73.312;2023-01-10T10:40:22;-27.30;67.81
73509;SHT30;61750;55.036;73.312;2023-01-10T10:42:54;-27.34;68.32
73509;SHT30;61750;55.036;73.312;2023-01-10T10:45:34;-27.44;68.64
73509;SHT30;61750;55.036;73.312;2023-01-10T10:50:49;-27.61;69.33
73509;SHT30;61750;55.036;73.312;2023-01-10T10:53:16;-27.62;69.73
73509;SHT30;61750;55.036;73.312;2023-01-10T10:55:50;-27.69;70.03
73509;SHT30;61750;55.036;73.312;2023-01-10T10:58:16;-27.75;70.32
73509;SHT30;61750;55.036;73.312;2023-01-10T11:00:48;-27.76;70.72
73509;SHT30;61750;55.036;73.312;2023-01-10T11:05:50;-27.89;71.14
73509;SHT30;61750;55.036;73.312;2023-01-10T11:08:16;-27.93;71.23
73509;SHT30;61750;55.036;73.312;2023-01-10T11:10:54;-27.96;71.31
73509;SHT30;61750;55.036;73.312;2023-01-10T11:15:50;-28.01;71.79
73509;SHT30;61750;55.036;73.312;2023-01-10T11:18:17;-28.04;72.07
73509;SHT30;61750;55.036;73.312;2023-01-10T11:20:52;-28.03;72.24
73509;SHT30;61750;55.036;73.312;2023-01-10T11:28:46;-28.07;72.51
73509;SHT30;61750;55.036;73.312;2023-01-10T11:31:27;-28.09;72.71
73509;SHT30;61750;55.036;73.312;2023-01-10T11:33:53;-28.11;72.86
73509;SHT30;61750;55.036;73.312;2023-01-10T11:36:19;-28.10;73.16
73509;SHT30;61750;55.036;73.312;2023-01-10T11:38:59;-28.09;73.38
73509;SHT30;61750;55.036;73.312;2023-01-10T11:41:25;-28.07;73.52
73509;SHT30;61750;55.036;73.312;2023-01-10T11:46:46;-28.03;73.75
73509;SHT30;61750;55.036;73.312;2023-01-10T11:49:14;-28.06;73.86
73509;SHT30;61750;55.036;73.312;2023-01-10T11:51:50;-28.03;73.84
73509;SHT30;61750;55.036;73.312;2023-01-10T11:54:21;-28.06;73.97
73509;SHT30;61750;55.036;73.312;2023-01-10T11:59:22;-27.99;74.20
73509;SHT30;61750;55.036;73.312;2023-01-10T12:04:27;-27.99;74.37
73509;SHT30;61750;55.036;73.312;2023-01-10T12:07:28;-27.93;74.54
73509;SHT30;61750;55.036;73.312;2023-01-10T12:09:55;-27.94;74.54
73509;SHT30;61750;55.036;73.312;2023-01-10T12:12:33;-27.94;74.54
73509;SHT30;61750;55.036;73.312;2023-01-10T12:15:24;-27.96;74.63
73509;SHT30;61750;55.036;73.312;2023-01-10T12:17:51;-27.97;74.59
73509;SHT30;61750;55.036;73.312;2023-01-10T12:20:18;-28.00;74.51
73509;SHT30;61750;55.036;73.312;2023-01-10T12:22:44;-27.99;74.51
73509;SHT30;61750;55.036;73.312;2023-01-10T12:25:43;-28.01;74.57
73509;SHT30;61750;55.036;73.312;2023-01-10T12:30:43;-28.07;74.43
73509;SHT30;61750;55.036;73.312;2023-01-10T12:33:15;-28.07;74.31
73509;SHT30;61750;55.036;73.312;2023-01-10T12:35:52;-28.11;74.32
73509;SHT30;61750;55.036;73.312;2023-01-10T12:38:33;-28.16;74.42
73509;SHT30;61750;55.036;73.312;2023-01-10T12:41:29;-28.20;74.49
73509;SHT30;61750;55.036;73.312;2023-01-10T12:44:50;-28.18;74.61
73509;SHT30;61750;55.036;73.312;2023-01-10T12:47:31;-28.23;74.56
73509;SHT30;61750;55.036;73.312;2023-01-10T12:55:01;-28.31;74.91
73509;SHT30;61750;55.036;73.312;2023-01-10T12:57:37;-28.31;74.95
73509;SHT30;61750;55.036;73.312;2023-01-10T13:00:05;-28.37;75.05
73509;SHT30;61750;55.036;73.312;2023-01-10T13:02:41;-28.34;75.13
73509;SHT30;61750;55.036;73.312;2023-01-10T13:05:19;-28.34;75.23
73509;SHT30;61750;55.036;73.312;2023-01-10T13:07:51;-28.35;75.26
73509;SHT30;61750;55.036;73.312;2023-01-10T13:10:28;-28.38;75.21
73509;SHT30;61750;55.036;73.312;2023-01-10T13:13:15;-28.40;75.34
73509;SHT30;61750;55.036;73.312;2023-01-10T13:19:00;-28.35;75.31
73509;SHT30;61750;55.036;73.312;2023-01-10T13:21:27;-28.34;75.38
73509;SHT30;61750;55.036;73.312;2023-01-10T13:24:05;-28.33;75.46
73509;SHT30;61750;55.036;73.312;2023-01-10T13:29:23;-28.41;75.32
73509;SHT30;61750;55.036;73.312;2023-01-10T13:32:29;-28.41;75.21
73509;SHT30;61750;55.036;73.312;2023-01-10T13:35:17;-28.44;75.14
73509;SHT30;61750;55.036;73.312;2023-01-10T13:37:52;-28.44;75.11
73509;SHT30;61750;55.036;73.312;2023-01-10T13:40:28;-28.45;75.10
73509;SHT30;61750;55.036;73.312;2023-01-10T13:45:44;-28.49;75.20
73509;SHT30;61750;55.036;73.312;2023-01-10T13:48:27;-28.47;75.34
73509;SHT30;61750;55.036;73.312;2023-01-10T13:50:56;-28.47;75.38
73509;SHT30;61750;55.036;73.312;2023-01-10T13:53:39;-28.45;75.40
73509;SHT30;61750;55.036;73.312;2023-01-10T13:56:16;-28.47;75.39
73509;SHT30;61750;55.036;73.312;2023-01-10T13:58:56;-28.47;75.41
73509;SHT30;61750;55.036;73.312;2023-01-10T14:01:40;-28.41;75.47
73509;SHT30;61750;55.036;73.312;2023-01-10T14:04:26;-28.40;75.46
73509;SHT30;61750;55.036;73.312;2023-01-10T14:10:08;-28.43;75.37
73509;SHT30;61750;55.036;73.312;2023-01-10T14:12:44;-28.41;75.45
73509;SHT30;61750;55.036;73.312;2023-01-10T14:15:22;-28.37;75.58
73509;SHT30;61750;55.036;73.312;2023-01-10T14:17:54;-28.33;75.69
73509;SHT30;61750;55.036;73.312;2023-01-10T14:20:20;-28.30;75.73
73509;SHT30;61750;55.036;73.312;2023-01-10T14:22:58;-28.20;75.75
73509;SHT30;61750;55.036;73.312;2023-01-10T14:25:33;-28.17;75.70
73509;SHT30;61750;55.036;73.312;2023-01-10T14:28:00;-28.16;75.50
73509;SHT30;61750;55.036;73.312;2023-01-10T14:30:28;-28.09;75.53
73509;SHT30;61750;55.036;73.312;2023-01-10T14:33:12;-28.04;75.44
73509;SHT30;61750;55.036;73.312;2023-01-10T14:35:44;-27.96;75.48
73509;SHT30;61750;55.036;73.312;2023-01-10T14:38:22;-27.93;75.41
73509;SHT30;61750;55.036;73.312;2023-01-10T14:40:50;-27.85;75.36
73509;SHT30;61750;55.036;73.312;2023-01-10T14:43:18;-27.88;75.18
73509;SHT30;61750;55.036;73.312;2023-01-10T14:50:52;-27.78;75.38
73509;SHT30;61750;55.036;73.312;2023-01-10T14:53:29;-27.70;75.22
73509;SHT30;61750;55.036;73.312;2023-01-10T14:56:16;-27.63;75.02
73509;SHT30;61750;55.036;73.312;2023-01-10T14:58:42;-27.68;74.54
73509;SHT30;61750;55.036;73.312;2023-01-10T15:01:08;-27.69;74.33
73509;SHT30;61750;55.036;73.312;2023-01-10T15:03:34;-27.72;74.34
73509;SHT30;61750;55.036;73.312;2023-01-10T15:06:08;-27.78;74.15
73509;SHT30;61750;55.036;73.312;2023-01-10T15:08:38;-27.73;74.40
73509;SHT30;61750;55.036;73.312;2023-01-10T15:11:10;-27.73;74.54
73509;SHT30;61750;55.036;73.312;2023-01-10T15:13:51;-27.68;74.67
73509;SHT30;61750;55.036;73.312;2023-01-10T15:16:19;-27.59;74.76
73509;SHT30;61750;55.036;73.312;2023-01-10T15:18:45;-27.54;74.56
73509;SHT30;61750;55.036;73.312;2023-01-10T15:21:16;-27.45;74.56
73509;SHT30;61750;55.036;73.312;2023-01-10T15:23:44;-27.35;74.57
73509;SHT30;61750;55.036;73.312;2023-01-10T15:26:15;-27.27;74.51
73509;SHT30;61750;55.036;73.312;2023-01-10T15:29:01;-27.15;74.43
73509;SHT30;61750;55.036;73.312;2023-01-10T15:31:27;-27.17;74.11
73509;SHT30;61750;55.036;73.312;2023-01-10T15:34:36;-27.20;73.72
73509;SHT30;61750;55.036;73.312;2023-01-10T15:37:33;-27.17;73.92
73509;SHT30;61750;55.036;73.312;2023-01-10T15:40:21;-27.14;74.24
73509;SHT30;61750;55.036;73.312;2023-01-10T15:42:47;-27.01;74.46
73509;SHT30;61750;55.036;73.312;2023-01-10T15:45:28;-26.89;74.53
73509;SHT30;61750;55.036;73.312;2023-01-10T15:56:15;-26.76;73.40
73509;SHT30;61750;55.036;73.312;2023-01-10T15:58:46;-26.79;73.55
73509;SHT30;61750;55.036;73.312;2023-01-10T16:01:13;-26.77;73.77
73509;SHT30;61750;55.036;73.312;2023-01-10T16:03:43;-26.72;73.88
73509;SHT30;61750;55.036;73.312;2023-01-10T16:06:19;-26.77;73.76
73509;SHT30;61750;55.036;73.312;2023-01-10T16:08:52;-26.86;73.57
73509;SHT30;61750;55.036;73.312;2023-01-10T16:11:40;-26.84;73.91
73509;SHT30;61750;55.036;73.312;2023-01-10T16:14:23;-26.79;74.05
73509;SHT30;61750;55.036;73.312;2023-01-10T16:17:29;-26.75;74.15
73509;SHT30;61750;55.036;73.312;2023-01-10T16:19:55;-26.69;74.19
73509;SHT30;61750;55.036;73.312;2023-01-10T16:22:29;-26.66;74.03
73509;SHT30;61750;55.036;73.312;2023-01-10T16:25:11;-26.67;73.89
73509;SHT30;61750;55.036;73.312;2023-01-10T16:27:37;-26.70;73.86
73509;SHT30;61750;55.036;73.312;2023-01-10T16:30:03;-26.65;74.00
73509;SHT30;61750;55.036;73.312;2023-01-10T16:32:29;-26.59;73.84
73509;SHT30;61750;55.036;73.312;2023-01-10T16:34:55;-26.57;73.54
73509;SHT30;61750;55.036;73.312;2023-01-10T16:37:29;-26.51;73.44
73509;SHT30;61750;55.036;73.312;2023-01-10T16:39:55;-26.44;73.39
73509;SHT30;61750;55.036;73.312;2023-01-10T16:42:31;-26.39;73.21
73509;SHT30;61750;55.036;73.312;2023-01-10T16:45:15;-26.41;73.27
73509;SHT30;61750;55.036;73.312;2023-01-10T16:47:54;-26.41;73.34
73509;SHT30;61750;55.036;73.312;2023-01-10T16:50:20;-26.48;73.34
73509;SHT30;61750;55.036;73.312;2023-01-10T16:52:46;-26.52;73.46
73509;SHT30;61750;55.036;73.312;2023-01-10T16:55:36;-26.53;73.66
73509;SHT30;61750;55.036;73.312;2023-01-10T16:58:07;-26.59;73.73
73509;SHT30;61750;55.036;73.312;2023-01-10T17:00:34;-26.60;73.68
73509;SHT30;61750;55.036;73.312;2023-01-10T17:03:11;-26.62;73.59
73509;SHT30;61750;55.036;73.312;2023-01-10T17:05:38;-26.69;73.39
73509;SHT30;61750;55.036;73.312;2023-01-10T17:08:04;-26.72;73.42
73509;SHT30;61750;55.036;73.312;2023-01-10T17:10:41;-26.80;73.38
73509;SHT30;61750;55.036;73.312;2023-01-10T17:13:22;-26.84;73.50
73509;SHT30;61750;55.036;73.312;2023-01-10T17:15:59;-26.84;73.82
73509;SHT30;61750;55.036;73.312;2023-01-10T17:18:25;-26.86;73.87
73509;SHT30;61750;55.036;73.312;2023-01-10T17:21:03;-26.73;74.21
73509;SHT30;61750;55.036;73.312;2023-01-10T17:23:29;-26.60;74.31
73509;SHT30;61750;55.036;73.312;2023-01-10T17:25:59;-26.53;74.37